首页
METAR-TAF:

METAR-TAF

机场 :

利文斯顿, 赞比亚

纬度: 17-49-18S, 经度: 025-49-22E, 海拔: 991米

METAR: 丢失

时间: 12:30 (10:30 UTC)

预报

该预报发布于30分钟前的10:00 UTC
预报有效从29日的 12点(UTC)到 30日的 18点(UTC)
风速10节,风向
能见度10公里或以上
1500米以下无云,无积雨云
成为
从 29日的 16点(UTC)到 29日的 18点(UTC)
风速10节,风向南转南东
成为
从 29日的 20点(UTC)到 29日的 22点(UTC)
风速3节,风向多变
成为
从 30日的 08点(UTC)到 30日的 10点(UTC)
风速10节,风向东北

TAF: FLHN 291000Z 2912/3018 09010KT CAVOK BECMG 2916/2918 15010KT BECMG 2920/2922 VRB03KT BECMG 3008/3010 05010KT

超过4000个机场的气象观测和天气预报(METAR&TAF报告)。

可查询的气象台以黄色和红色小点在地图上表示。

将鼠标移到小点上方,可查看气象台名称。

然后点击查看天气观测和预报。

如需切换地图:点击带黑十字的绿色按钮放大地图;点击带横线的绿色按钮缩小地图;或者点击绿色箭头查看邻近地区的地图。


METAR-TAF: